Time;durP1;ratioP1;P1;durP2;ratioP2;P2;SDS_P1;SDS_P2;PMS_P1;PMS_P2;Temp;Humidity;BMP_temperature;BMP_pressure;BME280_temperature;BME280_humidity;BME280_pressure;Samples;Min_cycle;Max_cycle;Signal;HPM_P1;HPM_P2
2022/02/26 00:01:28;;;;;;;21.23;7.80;;;2.40;99.90;;;;;;4457385;32;20174;-70
2022/02/26 00:03:55;;;;;;;17.40;7.80;;;2.40;99.90;;;;;;4456147;32;20505;-71
2022/02/26 00:06:22;;;;;;;18.33;8.10;;;2.40;99.90;;;;;;4450329;32;20508;-71
2022/02/26 00:08:49;;;;;;;20.90;8.97;;;2.40;99.90;;;;;;4446608;32;20525;-71
2022/02/26 00:11:16;;;;;;;19.73;8.47;;;2.40;99.90;;;;;;4441082;32;20201;-71
2022/02/26 00:13:43;;;;;;;15.63;7.87;;;2.40;99.90;;;;;;4439750;32;20218;-71
2022/02/26 00:16:09;;;;;;;20.63;8.80;;;2.30;99.90;;;;;;4441721;32;20225;-71
2022/02/26 00:18:39;;;;;;;17.70;8.50;;;2.30;99.90;;;;;;4441815;32;20220;-71
2022/02/26 00:21:05;;;;;;;17.43;8.23;;;2.30;99.90;;;;;;4441522;32;20143;-71
2022/02/26 00:23:32;;;;;;;23.60;8.83;;;2.20;99.90;;;;;;4441925;32;20194;-71
2022/02/26 00:25:59;;;;;;;20.07;9.13;;;2.20;99.90;;;;;;4439935;32;20178;-72
2022/02/26 00:28:31;;;;;;;20.20;8.60;;;2.20;99.90;;;;;;4440209;32;20236;-71
2022/02/26 00:30:58;;;;;;;20.37;8.33;;;2.10;99.90;;;;;;4441194;32;20166;-72
2022/02/26 00:33:25;;;;;;;22.73;8.67;;;2.10;99.90;;;;;;4441394;32;20162;-72
2022/02/26 00:35:52;;;;;;;20.33;8.63;;;2.10;99.90;;;;;;4440393;32;20233;-72
2022/02/26 00:38:19;;;;;;;18.53;8.80;;;2.00;99.90;;;;;;4439578;32;20205;-72
2022/02/26 00:40:46;;;;;;;22.60;9.20;;;2.00;99.90;;;;;;4439347;32;20190;-71
2022/02/26 00:43:13;;;;;;;24.33;9.27;;;1.90;99.90;;;;;;4440563;32;20214;-71
2022/02/26 00:45:40;;;;;;;21.57;9.30;;;1.90;99.90;;;;;;4441515;32;20162;-72
2022/02/26 00:48:07;;;;;;;22.60;9.33;;;1.90;99.90;;;;;;4439606;32;20178;-71
2022/02/26 00:50:33;;;;;;;25.90;9.27;;;1.90;99.90;;;;;;4439945;32;20189;-71
2022/02/26 00:53:00;;;;;;;22.67;9.40;;;1.80;99.90;;;;;;4439666;32;20178;-72
2022/02/26 00:55:27;;;;;;;23.30;9.83;;;1.80;99.90;;;;;;4441935;32;20166;-72
2022/02/26 00:57:54;;;;;;;21.47;9.37;;;1.80;99.90;;;;;;4442829;32;20177;-71
2022/02/26 01:00:21;;;;;;;22.77;8.97;;;1.80;99.90;;;;;;4441041;32;20524;-71
2022/02/26 01:02:50;;;;;;;21.90;9.23;;;1.80;99.90;;;;;;4427535;32;20182;-71
2022/02/26 01:05:18;;;;;;;22.63;10.03;;;1.80;99.90;;;;;;4441391;32;20405;-71
2022/02/26 01:07:46;;;;;;;22.83;9.90;;;1.80;99.90;;;;;;4441361;32;20459;-71
2022/02/26 01:10:14;;;;;;;24.43;10.60;;;1.90;99.90;;;;;;4441175;32;20464;-71
2022/02/26 01:12:40;;;;;;;25.57;10.30;;;1.90;99.90;;;;;;4440558;32;20254;-71
2022/02/26 01:15:08;;;;;;;24.30;9.90;;;1.90;99.90;;;;;;4439651;32;20512;-70
2022/02/26 01:17:35;;;;;;;22.80;9.10;;;1.90;99.90;;;;;;4439447;32;20269;-71
2022/02/26 01:20:02;;;;;;;23.40;9.43;;;1.90;99.90;;;;;;4439100;32;20547;-71
2022/02/26 01:22:32;;;;;;;22.73;10.10;;;2.00;99.90;;;;;;4441022;32;20426;-71
2022/02/26 01:24:59;;;;;;;22.60;9.57;;;2.00;99.90;;;;;;4440886;32;20204;-72
2022/02/26 01:27:26;;;;;;;26.07;10.17;;;1.90;99.90;;;;;;4439139;32;20254;-72
2022/02/26 01:29:53;;;;;;;23.53;9.77;;;1.90;99.90;;;;;;4440639;32;20235;-72
2022/02/26 01:32:20;;;;;;;23.03;10.03;;;1.90;99.90;;;;;;4439734;32;20308;-72
2022/02/26 01:34:47;;;;;;;19.53;9.33;;;1.90;99.90;;;;;;4438821;32;20178;-73
2022/02/26 01:37:14;;;;;;;26.10;10.30;;;2.00;99.90;;;;;;4440285;32;20477;-72
2022/02/26 01:39:40;;;;;;;19.73;9.40;;;2.00;99.90;;;;;;4439573;32;20213;-70
2022/02/26 01:42:07;;;;;;;21.90;9.73;;;1.90;99.90;;;;;;4441116;32;20192;-71
2022/02/26 01:44:36;;;;;;;26.27;10.00;;;1.90;99.90;;;;;;4440349;32;20170;-70
2022/02/26 01:47:05;;;;;;;24.83;9.87;;;1.90;99.90;;;;;;4438994;32;20516;-71
2022/02/26 01:49:32;;;;;;;20.30;9.50;;;2.00;99.90;;;;;;4440316;32;20178;-71
2022/02/26 01:51:59;;;;;;;23.67;10.30;;;2.00;99.90;;;;;;4441304;32;20154;-71
2022/02/26 01:54:26;;;;;;;22.50;9.73;;;2.10;99.90;;;;;;4439541;32;20269;-71
2022/02/26 01:56:53;;;;;;;23.37;10.47;;;2.10;99.90;;;;;;4438125;32;20220;-71
2022/02/26 01:59:20;;;;;;;22.73;9.87;;;2.10;99.90;;;;;;4439491;32;20464;-71
2022/02/26 02:01:47;;;;;;;26.83;10.10;;;2.20;99.90;;;;;;4438189;32;20234;-71
2022/02/26 02:04:15;;;;;;;24.10;9.50;;;2.20;99.90;;;;;;4439733;32;20272;-71
2022/02/26 02:06:43;;;;;;;26.37;10.30;;;2.20;99.90;;;;;;4438227;32;20249;-71
2022/02/26 02:09:11;;;;;;;21.70;9.93;;;2.10;99.90;;;;;;4439952;32;20249;-71
2022/02/26 02:11:38;;;;;;;24.60;10.47;;;2.20;99.90;;;;;;4440920;32;20162;-72
2022/02/26 02:14:05;;;;;;;23.67;9.73;;;2.20;99.90;;;;;;4437796;32;20241;-72
2022/02/26 02:16:36;;;;;;;21.10;9.80;;;2.20;99.90;;;;;;4438097;32;20239;-71
2022/02/26 02:19:06;;;;;;;22.23;9.97;;;2.20;99.90;;;;;;4437902;32;20189;-71
2022/02/26 02:21:34;;;;;;;24.37;10.13;;;2.20;99.90;;;;;;4437912;32;20213;-71
2022/02/26 02:24:02;;;;;;;24.30;9.93;;;2.20;99.90;;;;;;4439448;32;20252;-71
2022/02/26 02:26:30;;;;;;;22.67;9.17;;;2.30;99.90;;;;;;4438051;32;20241;-72
2022/02/26 02:28:58;;;;;;;26.43;10.07;;;2.30;99.90;;;;;;4437894;32;20186;-72
2022/02/26 02:31:25;;;;;;;21.80;9.50;;;2.30;99.90;;;;;;4439868;32;20204;-71
2022/02/26 02:33:52;;;;;;;23.30;9.97;;;2.30;99.90;;;;;;4437584;32;20190;-71
2022/02/26 02:36:19;;;;;;;24.60;9.50;;;2.30;99.90;;;;;;4437994;32;20205;-72
2022/02/26 02:38:46;;;;;;;22.10;9.90;;;2.30;99.90;;;;;;4439202;32;20237;-72
2022/02/26 02:41:13;;;;;;;20.70;9.17;;;2.30;99.90;;;;;;4438685;32;20221;-70
2022/02/26 02:43:40;;;;;;;22.73;9.93;;;2.30;99.90;;;;;;4438185;32;20185;-71
2022/02/26 02:46:07;;;;;;;25.07;9.97;;;2.30;99.90;;;;;;4439766;32;20179;-70
2022/02/26 02:48:36;;;;;;;20.40;9.20;;;2.30;99.90;;;;;;4439883;32;20227;-71
2022/02/26 02:51:03;;;;;;;21.73;9.33;;;2.30;99.90;;;;;;4439828;32;20524;-71
2022/02/26 02:53:30;;;;;;;20.80;9.10;;;2.30;99.90;;;;;;4439282;32;20239;-71
2022/02/26 02:55:56;;;;;;;21.17;8.90;;;2.30;99.90;;;;;;4441136;32;20193;-71
2022/02/26 02:58:28;;;;;;;22.07;9.23;;;2.30;99.90;;;;;;4439507;32;20201;-72
2022/02/26 03:00:57;;;;;;;26.20;9.97;;;2.40;99.90;;;;;;4438607;32;20457;-71
2022/02/26 03:03:25;;;;;;;20.23;9.07;;;2.40;99.90;;;;;;4439390;32;20150;-71
2022/02/26 03:05:53;;;;;;;18.50;9.23;;;2.40;99.90;;;;;;4437418;32;20179;-71
2022/02/26 03:08:24;;;;;;;27.13;9.57;;;2.40;99.90;;;;;;4439911;32;20202;-71
2022/02/26 03:10:53;;;;;;;22.63;9.47;;;2.50;99.90;;;;;;4439607;32;20245;-71
2022/02/26 03:13:24;;;;;;;23.13;10.23;;;2.40;99.90;;;;;;4438115;32;20201;-71
2022/02/26 03:15:52;;;;;;;20.37;9.13;;;2.50;99.90;;;;;;4439360;32;20269;-71
2022/02/26 03:18:21;;;;;;;21.90;8.97;;;2.40;99.90;;;;;;4439295;32;20259;-71
2022/02/26 03:20:48;;;;;;;24.40;9.03;;;2.40;99.90;;;;;;4439499;32;20238;-71
2022/02/26 03:23:15;;;;;;;21.70;9.30;;;2.40;99.90;;;;;;4439343;32;20201;-71
2022/02/26 03:25:44;;;;;;;22.77;9.23;;;2.50;99.90;;;;;;4438504;32;20179;-72
2022/02/26 03:28:11;;;;;;;21.13;8.83;;;2.50;99.90;;;;;;4439257;32;20228;-71
2022/02/26 03:30:40;;;;;;;21.53;8.80;;;2.50;99.90;;;;;;4437836;32;20804;-71
2022/02/26 03:33:07;;;;;;;19.43;8.87;;;2.50;99.90;;;;;;4437693;32;20167;-71
2022/02/26 03:35:35;;;;;;;19.73;9.07;;;2.50;99.90;;;;;;4437984;32;20226;-71
2022/02/26 03:38:02;;;;;;;21.77;8.73;;;2.60;99.90;;;;;;4440803;32;20477;-71
2022/02/26 03:40:33;;;;;;;23.13;8.97;;;2.60;99.90;;;;;;4437720;32;20192;-71
2022/02/26 03:43:00;;;;;;;22.43;8.60;;;2.60;99.90;;;;;;4438253;32;20245;-72
2022/02/26 03:45:27;;;;;;;20.87;8.77;;;2.70;99.90;;;;;;4437498;32;20194;-71
2022/02/26 03:47:54;;;;;;;22.47;9.27;;;2.70;99.90;;;;;;4438145;32;20246;-71
2022/02/26 03:50:21;;;;;;;19.33;8.50;;;2.70;99.90;;;;;;4439398;32;20238;-71
2022/02/26 03:52:48;;;;;;;20.03;8.43;;;2.70;99.90;;;;;;4438681;32;20212;-71
2022/02/26 03:55:15;;;;;;;20.17;8.17;;;2.70;99.90;;;;;;4437823;32;20541;-71
2022/02/26 03:57:46;;;;;;;18.07;7.67;;;2.70;99.90;;;;;;4439364;32;20172;-71
2022/02/26 04:00:13;;;;;;;21.83;9.07;;;2.70;99.90;;;;;;4437413;32;20498;-71
2022/02/26 04:02:42;;;;;;;18.17;8.13;;;2.70;99.90;;;;;;4438632;32;20195;-70
2022/02/26 04:05:09;;;;;;;20.47;7.93;;;2.70;99.90;;;;;;4439245;32;20516;-70
2022/02/26 04:07:40;;;;;;;18.13;7.73;;;2.70;99.90;;;;;;4439339;32;20213;-71
2022/02/26 04:10:07;;;;;;;16.63;7.83;;;2.70;99.90;;;;;;4439010;32;20206;-73
2022/02/26 04:12:34;;;;;;;17.17;8.00;;;2.70;99.90;;;;;;4438900;32;20211;-71
2022/02/26 04:15:01;;;;;;;20.43;7.93;;;2.70;99.90;;;;;;4424171;32;20198;-71
2022/02/26 04:17:28;;;;;;;16.93;7.67;;;2.70;99.90;;;;;;4441697;32;20257;-71
2022/02/26 04:19:55;;;;;;;19.00;8.10;;;2.70;99.90;;;;;;4441901;32;20596;-71
2022/02/26 04:22:21;;;;;;;18.93;8.07;;;2.60;99.90;;;;;;4442045;32;20256;-70
2022/02/26 04:24:48;;;;;;;20.40;7.97;;;2.70;99.90;;;;;;4440568;32;20190;-70
2022/02/26 04:27:15;;;;;;;17.20;7.43;;;2.70;99.90;;;;;;4441495;32;20197;-71
2022/02/26 04:29:42;;;;;;;21.80;8.13;;;2.70;99.90;;;;;;4439901;32;20198;-71
2022/02/26 04:32:29;;;;;;;15.33;7.13;;;2.70;99.90;;;;;;4442410;32;20181;-71
2022/02/26 04:34:56;;;;;;;15.87;7.53;;;2.80;99.90;;;;;;4440436;32;20478;-71
2022/02/26 04:37:23;;;;;;;17.97;8.00;;;2.80;99.90;;;;;;4439753;32;20226;-71
2022/02/26 04:39:52;;;;;;;17.10;7.57;;;2.80;99.90;;;;;;4428507;32;20403;-71
2022/02/26 04:42:19;;;;;;;14.37;7.37;;;2.80;99.90;;;;;;4439897;32;20180;-72
2022/02/26 04:44:46;;;;;;;17.47;7.77;;;2.90;99.90;;;;;;4441510;32;20194;-72
2022/02/26 04:47:13;;;;;;;17.80;7.93;;;2.90;99.90;;;;;;4441558;32;20246;-71
2022/02/26 04:49:40;;;;;;;19.70;7.77;;;2.90;99.90;;;;;;4440105;32;20446;-71
2022/02/26 04:52:07;;;;;;;15.97;8.00;;;2.90;99.90;;;;;;4440035;32;20194;-72
2022/02/26 04:54:34;;;;;;;15.63;7.33;;;2.90;99.90;;;;;;4441023;32;20194;-71
2022/02/26 04:57:02;;;;;;;17.47;7.83;;;2.90;99.90;;;;;;4439393;32;20178;-71
2022/02/26 04:59:29;;;;;;;18.47;8.17;;;2.90;99.90;;;;;;4439814;32;20202;-71
2022/02/26 05:01:58;;;;;;;16.97;7.73;;;2.80;99.90;;;;;;4440970;32;20268;-71
2022/02/26 05:04:25;;;;;;;17.23;8.10;;;2.80;99.90;;;;;;4441003;32;20186;-71
2022/02/26 05:06:52;;;;;;;15.77;8.03;;;2.80;99.90;;;;;;4441028;32;20243;-71
2022/02/26 05:09:19;;;;;;;17.93;7.90;;;2.80;99.90;;;;;;4440612;32;20254;-71
2022/02/26 05:11:46;;;;;;;15.23;7.47;;;2.70;99.90;;;;;;4440561;32;20416;-71
2022/02/26 05:14:12;;;;;;;18.10;8.33;;;2.70;99.90;;;;;;4440712;32;20242;-71
2022/02/26 05:16:39;;;;;;;18.07;7.97;;;2.70;99.90;;;;;;4440803;32;20213;-71
2022/02/26 05:19:06;;;;;;;22.03;8.20;;;2.70;99.90;;;;;;4428383;32;20190;-71
2022/02/26 05:21:37;;;;;;;18.00;7.70;;;2.60;99.90;;;;;;4439033;32;20195;-72
2022/02/26 05:24:05;;;;;;;17.13;8.03;;;2.60;99.90;;;;;;4440068;32;20175;-71
2022/02/26 05:26:32;;;;;;;19.67;7.97;;;2.60;99.90;;;;;;4440357;32;20482;-71
2022/02/26 05:28:59;;;;;;;21.53;8.47;;;2.50;99.90;;;;;;4438843;32;20550;-71
2022/02/26 05:31:26;;;;;;;21.63;7.90;;;2.50;99.90;;;;;;4441732;32;20226;-71
2022/02/26 05:33:53;;;;;;;16.77;8.13;;;2.40;99.90;;;;;;4439032;32;20199;-71
2022/02/26 05:36:19;;;;;;;19.83;8.43;;;2.40;99.90;;;;;;4438704;32;20258;-72
2022/02/26 05:38:46;;;;;;;19.10;8.20;;;2.30;99.90;;;;;;4439953;32;20188;-71
2022/02/26 05:41:13;;;;;;;15.83;7.67;;;2.30;99.90;;;;;;4441588;32;20227;-71
2022/02/26 05:43:40;;;;;;;20.30;7.77;;;2.30;99.90;;;;;;4438408;32;20502;-71
2022/02/26 05:46:07;;;;;;;15.60;7.93;;;2.20;99.90;;;;;;4438900;32;20197;-71
2022/02/26 05:48:34;;;;;;;17.43;7.97;;;2.20;99.90;;;;;;4439369;32;20205;-71
2022/02/26 05:51:01;;;;;;;19.37;8.43;;;2.20;99.90;;;;;;4438869;32;20543;-71
2022/02/26 05:53:29;;;;;;;18.63;8.20;;;2.10;99.90;;;;;;4441442;32;20174;-71
2022/02/26 05:55:56;;;;;;;18.27;7.73;;;2.10;99.90;;;;;;4439510;32;20227;-71
2022/02/26 05:58:23;;;;;;;16.63;7.70;;;2.10;99.90;;;;;;4441306;32;20175;-71
2022/02/26 06:00:50;;;;;;;18.30;8.23;;;2.10;99.90;;;;;;4440147;32;20181;-71
2022/02/26 06:03:17;;;;;;;17.17;8.50;;;2.10;99.90;;;;;;4439951;32;20240;-71
2022/02/26 06:05:45;;;;;;;19.33;8.57;;;2.10;99.90;;;;;;4440198;32;20238;-71
2022/02/26 06:08:12;;;;;;;20.90;8.80;;;2.10;99.90;;;;;;4438087;32;20218;-71
2022/02/26 06:10:39;;;;;;;19.93;8.10;;;2.10;99.90;;;;;;4439106;32;20285;-71
2022/02/26 06:13:06;;;;;;;20.13;8.17;;;2.10;99.90;;;;;;4438746;32;20202;-71
2022/02/26 06:15:33;;;;;;;19.53;8.33;;;2.10;99.90;;;;;;4438220;32;20243;-71
2022/02/26 06:18:00;;;;;;;18.70;9.07;;;2.20;99.90;;;;;;4438159;32;20511;-71
2022/02/26 06:20:29;;;;;;;19.73;8.73;;;2.20;99.90;;;;;;4439892;32;20592;-71
2022/02/26 06:22:56;;;;;;;19.00;8.73;;;2.20;99.90;;;;;;4439993;32;20240;-70
2022/02/26 06:25:22;;;;;;;17.57;8.93;;;2.20;99.90;;;;;;4425395;32;20217;-71
2022/02/26 06:27:49;;;;;;;19.83;8.70;;;2.30;99.90;;;;;;4439710;32;20225;-71
2022/02/26 06:30:16;;;;;;;17.20;8.40;;;2.30;99.90;;;;;;4438334;32;20312;-71
2022/02/26 06:32:43;;;;;;;17.13;8.87;;;2.40;99.90;;;;;;4439256;32;20460;-72
2022/02/26 06:35:11;;;;;;;18.83;8.63;;;2.40;99.90;;;;;;4438381;32;20277;-71
2022/02/26 06:37:38;;;;;;;17.63;8.53;;;2.40;99.90;;;;;;4437939;32;20206;-71
2022/02/26 06:40:06;;;;;;;18.60;8.93;;;2.40;99.90;;;;;;4440031;32;20169;-71
2022/02/26 06:42:33;;;;;;;18.70;9.13;;;2.50;99.90;;;;;;4437913;32;20541;-69
2022/02/26 06:45:00;;;;;;;18.17;9.40;;;2.60;99.90;;;;;;4437825;32;20277;-71
2022/02/26 06:47:28;;;;;;;18.47;8.80;;;2.60;99.90;;;;;;4440854;32;20197;-71
2022/02/26 06:49:55;;;;;;;19.27;8.93;;;2.60;99.90;;;;;;4439457;32;20150;-72
2022/02/26 06:52:22;;;;;;;17.90;8.83;;;2.70;99.90;;;;;;4437778;32;20463;-70
2022/02/26 06:54:49;;;;;;;22.77;9.73;;;2.80;99.90;;;;;;4439205;32;20494;-71
2022/02/26 06:57:36;;;;;;;20.63;9.13;;;2.90;99.90;;;;;;4439440;32;20182;-71
2022/02/26 07:00:06;;;;;;;20.17;9.10;;;3.00;99.90;;;;;;4438763;32;20261;-72
2022/02/26 07:02:34;;;;;;;18.57;8.57;;;2.90;99.90;;;;;;4440970;32;20147;-72
2022/02/26 07:05:01;;;;;;;16.53;8.43;;;2.90;99.90;;;;;;4438754;32;20170;-72
2022/02/26 07:07:28;;;;;;;18.20;8.77;;;3.00;99.90;;;;;;4437819;32;20234;-72
2022/02/26 07:09:55;;;;;;;20.70;9.37;;;3.20;99.90;;;;;;4438830;32;20220;-72
2022/02/26 07:12:22;;;;;;;20.83;10.00;;;3.30;99.90;;;;;;4445746;32;20511;-71
2022/02/26 07:14:49;;;;;;;15.93;9.30;;;3.40;99.90;;;;;;4437887;32;20279;-72
2022/02/26 07:17:16;;;;;;;18.07;8.47;;;3.50;99.90;;;;;;4440664;32;20159;-72
2022/02/26 07:19:43;;;;;;;22.30;9.90;;;3.30;99.90;;;;;;4439374;32;20185;-71
2022/02/26 07:22:10;;;;;;;20.57;10.00;;;3.20;99.90;;;;;;4439712;32;20202;-71
2022/02/26 07:24:39;;;;;;;21.53;9.53;;;3.20;99.90;;;;;;4439674;32;20209;-71
2022/02/26 07:27:05;;;;;;;23.67;10.43;;;3.10;99.90;;;;;;4439134;32;20249;-71
2022/02/26 07:29:32;;;;;;;19.70;10.17;;;3.10;99.90;;;;;;4437536;32;20194;-71
2022/02/26 07:32:00;;;;;;;19.97;9.90;;;3.10;99.90;;;;;;4439569;32;20172;-71
2022/02/26 07:34:27;;;;;;;22.10;10.67;;;3.10;99.90;;;;;;4437859;32;20458;-72
2022/02/26 07:36:54;;;;;;;24.73;10.33;;;3.10;99.90;;;;;;4439381;32;20206;-72
2022/02/26 07:39:20;;;;;;;21.23;9.97;;;3.20;99.90;;;;;;4439461;32;20218;-71
2022/02/26 07:41:47;;;;;;;23.37;9.80;;;3.20;99.90;;;;;;4438875;32;20234;-72
2022/02/26 07:44:14;;;;;;;21.00;10.63;;;3.30;99.90;;;;;;4439232;32;20587;-71
2022/02/26 07:46:41;;;;;;;20.37;9.47;;;3.50;99.90;;;;;;4437139;32;20176;-71
2022/02/26 07:49:08;;;;;;;21.97;9.53;;;3.60;99.90;;;;;;4438015;32;20197;-71
2022/02/26 07:51:35;;;;;;;20.33;9.80;;;3.60;99.90;;;;;;4440607;32;20234;-71
2022/02/26 07:54:01;;;;;;;18.53;9.63;;;3.70;99.90;;;;;;4442176;32;20209;-72
2022/02/26 07:56:28;;;;;;;18.50;9.50;;;3.80;99.90;;;;;;4448489;32;20182;-71
2022/02/26 07:58:55;;;;;;;24.10;9.80;;;3.90;99.90;;;;;;4440720;32;20528;-70
2022/02/26 08:01:22;;;;;;;21.20;10.03;;;4.00;99.90;;;;;;4449360;32;20254;-72
2022/02/26 08:03:51;;;;;;;20.23;9.80;;;4.00;99.90;;;;;;4441751;32;20172;-72
2022/02/26 08:06:17;;;;;;;19.63;10.13;;;4.00;99.90;;;;;;4440551;32;20172;-73
2022/02/26 08:08:46;;;;;;;20.17;10.33;;;3.90;99.90;;;;;;4441684;32;20202;-72
2022/02/26 08:11:13;;;;;;;18.90;9.77;;;4.00;99.90;;;;;;4440111;32;20187;-71
2022/02/26 08:13:40;;;;;;;19.37;10.07;;;4.00;99.90;;;;;;4440154;32;20216;-71
2022/02/26 08:16:08;;;;;;;20.57;9.53;;;4.10;99.90;;;;;;4440429;32;20184;-72
2022/02/26 08:18:35;;;;;;;20.77;10.37;;;4.40;99.90;;;;;;4441719;32;20205;-70
2022/02/26 08:21:03;;;;;;;19.20;9.63;;;4.90;99.90;;;;;;4445041;32;20239;-72
2022/02/26 08:23:30;;;;;;;21.30;9.90;;;5.30;99.90;;;;;;4442796;32;20228;-71
2022/02/26 08:25:57;;;;;;;18.97;9.73;;;5.80;99.90;;;;;;4440024;32;20269;-71
2022/02/26 08:28:24;;;;;;;18.87;9.90;;;6.10;99.90;;;;;;4439685;32;20206;-72
2022/02/26 08:30:51;;;;;;;21.73;9.90;;;6.20;99.90;;;;;;4439875;32;20199;-72
2022/02/26 08:33:18;;;;;;;21.43;9.83;;;6.70;99.90;;;;;;4439704;32;20174;-73
2022/02/26 08:35:44;;;;;;;17.47;9.50;;;6.60;99.90;;;;;;4439402;32;20218;-72
2022/02/26 08:38:11;;;;;;;22.57;10.70;;;6.80;99.90;;;;;;4440410;32;20205;-71
2022/02/26 08:40:38;;;;;;;19.13;10.17;;;7.10;99.90;;;;;;4442220;32;20203;-70
2022/02/26 08:43:05;;;;;;;19.37;10.23;;;7.50;99.90;;;;;;4440634;32;20572;-68
2022/02/26 08:45:35;;;;;;;20.53;10.57;;;7.60;99.90;;;;;;4441336;32;20185;-69
2022/02/26 08:48:03;;;;;;;21.33;10.43;;;7.80;99.90;;;;;;4441305;32;20207;-67
2022/02/26 08:50:29;;;;;;;17.33;9.67;;;7.60;99.90;;;;;;4441129;32;20170;-70
2022/02/26 08:52:56;;;;;;;18.53;9.87;;;7.90;99.90;;;;;;4440967;32;20435;-67
2022/02/26 08:55:23;;;;;;;16.67;9.43;;;8.50;99.90;;;;;;4441294;32;20201;-68
2022/02/26 08:57:50;;;;;;;18.57;9.23;;;8.80;99.90;;;;;;4439549;32;20268;-69
2022/02/26 09:00:18;;;;;;;15.13;8.73;;;8.70;99.90;;;;;;4439280;32;20318;-68
2022/02/26 09:02:45;;;;;;;19.63;9.67;;;9.20;99.90;;;;;;4440327;32;20446;-66
2022/02/26 09:05:13;;;;;;;15.53;9.53;;;9.70;99.90;;;;;;4440752;32;20187;-68
2022/02/26 09:07:39;;;;;;;16.50;9.00;;;9.90;99.90;;;;;;4440637;32;20198;-67
2022/02/26 09:10:09;;;;;;;15.77;8.53;;;10.30;99.90;;;;;;4439436;32;20209;-67
2022/02/26 09:12:36;;;;;;;17.20;9.60;;;10.60;99.90;;;;;;4440584;32;20520;-68
2022/02/26 09:15:04;;;;;;;15.87;8.80;;;10.90;99.90;;;;;;4441138;32;20408;-68
2022/02/26 09:17:31;;;;;;;15.47;8.17;;;11.10;99.90;;;;;;4439921;32;20202;-68
2022/02/26 09:19:58;;;;;;;13.73;8.07;;;11.30;99.90;;;;;;4440211;32;20238;-67
2022/02/26 09:22:24;;;;;;;16.10;8.90;;;11.40;99.90;;;;;;4438883;32;20226;-67
2022/02/26 09:24:51;;;;;;;15.70;8.40;;;11.30;99.90;;;;;;4439113;32;20568;-66
2022/02/26 09:27:20;;;;;;;16.13;8.73;;;11.40;99.90;;;;;;4440074;32;20276;-66
2022/02/26 09:29:48;;;;;;;13.50;8.57;;;11.50;99.90;;;;;;4440378;32;20183;-69
2022/02/26 09:32:15;;;;;;;13.47;7.73;;;11.60;99.90;;;;;;4440267;32;20222;-69
2022/02/26 09:34:42;;;;;;;13.70;8.00;;;12.00;99.90;;;;;;4438788;32;20234;-67
2022/02/26 09:37:09;;;;;;;12.30;7.87;;;12.50;99.90;;;;;;4448550;32;20245;-67
2022/02/26 09:39:35;;;;;;;14.40;7.57;;;12.40;99.90;;;;;;4444321;32;20147;-66
2022/02/26 09:42:03;;;;;;;13.33;7.43;;;12.50;99.90;;;;;;4453490;32;20221;-69
2022/02/26 09:44:30;;;;;;;13.27;7.30;;;12.60;99.10;;;;;;4454089;32;20402;-68
2022/02/26 09:46:58;;;;;;;14.33;7.73;;;12.20;99.10;;;;;;4456336;32;20549;-68
2022/02/26 09:49:26;;;;;;;13.10;7.87;;;11.90;99.90;;;;;;4455323;32;20212;-67
2022/02/26 09:51:58;;;;;;;15.07;8.33;;;11.40;99.90;;;;;;4454203;32;20166;-69
2022/02/26 09:54:25;;;;;;;15.07;8.30;;;10.90;99.90;;;;;;4453715;32;20190;-68
2022/02/26 09:56:53;;;;;;;14.27;7.90;;;10.60;99.90;;;;;;4455066;32;20193;-70
2022/02/26 09:59:21;;;;;;;13.77;8.43;;;10.50;99.90;;;;;;4455486;32;20225;-70
2022/02/26 10:02:07;;;;;;;16.30;8.80;;;10.00;99.90;;;;;;4454419;32;20435;-68
2022/02/26 10:04:39;;;;;;;14.43;8.27;;;9.80;99.90;;;;;;4454936;32;20257;-70
2022/02/26 10:07:13;;;;;;;16.17;8.40;;;9.70;99.90;;;;;;4454791;32;20250;-70
2022/02/26 10:09:42;;;;;;;13.43;8.00;;;9.70;99.90;;;;;;4453863;32;20197;-70
2022/02/26 10:12:23;;;;;;;17.77;8.30;;;9.70;99.90;;;;;;4454862;32;20201;-69
2022/02/26 10:14:51;;;;;;;14.60;8.50;;;9.90;99.90;;;;;;4454585;32;20166;-71
2022/02/26 10:17:27;;;;;;;15.53;8.47;;;9.80;99.90;;;;;;4453812;32;20237;-69
2022/02/26 10:20:04;;;;;;;13.43;8.40;;;10.00;99.90;;;;;;4452977;32;20205;-69
2022/02/26 10:22:32;;;;;;;17.10;9.30;;;10.40;99.90;;;;;;4454571;32;20169;-69
2022/02/26 10:25:13;;;;;;;16.77;8.83;;;10.50;99.90;;;;;;4453065;32;20233;-71
2022/02/26 10:27:47;;;;;;;14.60;9.13;;;10.40;99.90;;;;;;4453442;32;20197;-71
2022/02/26 10:30:20;;;;;;;15.93;8.40;;;10.40;99.90;;;;;;4456305;32;20165;-72
2022/02/26 10:33:03;;;;;;;16.73;9.47;;;10.60;99.90;;;;;;4455445;32;20170;-72
2022/02/26 10:35:42;;;;;;;16.43;10.27;;;10.60;99.90;;;;;;4453418;32;20232;-71
2022/02/26 10:38:21;;;;;;;15.23;8.73;;;10.60;99.90;;;;;;4453965;32;20181;-73
2022/02/26 10:41:06;;;;;;;18.13;9.87;;;10.60;99.90;;;;;;4454846;32;20200;-73
2022/02/26 10:43:52;;;;;;;17.33;9.07;;;10.40;99.90;;;;;;4453537;32;20237;-70
2022/02/26 10:46:23;;;;;;;12.33;8.43;;;9.90;99.90;;;;;;4452794;32;20193;-72
2022/02/26 10:48:54;;;;;;;16.37;8.90;;;9.70;99.90;;;;;;4453010;32;20366;-71
2022/02/26 10:51:30;;;;;;;15.47;7.73;;;9.70;99.90;;;;;;4455382;32;20251;-71
2022/02/26 10:53:59;;;;;;;15.20;6.97;;;9.60;99.90;;;;;;4454162;32;20531;-72
2022/02/26 10:56:31;;;;;;;12.27;6.67;;;9.50;99.90;;;;;;4453396;32;20579;-70
2022/02/26 10:58:59;;;;;;;12.37;6.60;;;9.60;99.90;;;;;;4452889;32;20378;-72
2022/02/26 11:01:26;;;;;;;11.40;6.67;;;9.90;99.90;;;;;;4454450;32;20170;-70
2022/02/26 11:03:57;;;;;;;12.97;6.37;;;10.40;99.90;;;;;;4454750;32;20186;-72
2022/02/26 11:06:25;;;;;;;13.93;7.03;;;11.30;99.90;;;;;;4454741;32;20193;-72
2022/02/26 11:08:52;;;;;;;11.00;6.83;;;11.90;99.90;;;;;;4454458;32;20197;-70
2022/02/26 11:11:22;;;;;;;12.13;7.40;;;12.20;97.90;;;;;;4454438;32;20236;-70
2022/02/26 11:13:52;;;;;;;14.03;7.40;;;12.10;97.30;;;;;;4452097;32;20224;-69
2022/02/26 11:16:21;;;;;;;10.37;6.70;;;11.70;99.40;;;;;;4452477;32;20486;-70
2022/02/26 11:18:52;;;;;;;12.40;7.33;;;11.40;99.50;;;;;;4454583;32;20168;-70
2022/02/26 11:21:23;;;;;;;12.53;7.17;;;10.40;99.90;;;;;;4456045;32;20150;-68
2022/02/26 11:23:51;;;;;;;13.83;7.60;;;9.80;99.90;;;;;;4455799;32;20142;-71
2022/02/26 11:26:21;;;;;;;14.30;7.70;;;9.40;99.90;;;;;;4455686;32;20213;-71
2022/02/26 11:28:56;;;;;;;14.33;7.07;;;9.10;99.90;;;;;;4456036;32;20173;-71
2022/02/26 11:31:32;;;;;;;12.93;7.37;;;9.20;99.90;;;;;;4456353;32;20174;-71
2022/02/26 11:33:59;;;;;;;15.10;7.30;;;9.20;99.90;;;;;;4456022;32;20459;-72
2022/02/26 11:37:02;;;;;;;12.47;6.40;;;9.50;99.90;;;;;;4455603;32;20241;-73
2022/02/26 11:39:35;;;;;;;11.77;6.33;;;10.00;99.90;;;;;;4381298;32;20179;-71
2022/02/26 11:42:23;;;;;;;11.00;5.80;;;10.80;99.90;;;;;;4381779;32;20187;-75
2022/02/26 11:45:11;;;;;;;11.03;5.93;;;12.30;99.90;;;;;;4382439;32;20565;-74
2022/02/26 11:47:49;;;;;;;10.50;5.57;;;12.90;96.70;;;;;;4381588;32;20517;-73
2022/02/26 11:50:24;;;;;;;10.17;5.97;;;13.00;93.10;;;;;;4380783;32;20197;-72
2022/02/26 11:52:59;;;;;;;9.70;5.93;;;12.70;92.20;;;;;;4379735;32;20174;-72
2022/02/26 11:55:38;;;;;;;10.40;5.70;;;12.40;93.30;;;;;;4370695;32;20561;-72
2022/02/26 11:58:10;;;;;;;10.03;5.97;;;12.20;93.60;;;;;;4391673;32;20198;-71
2022/02/26 12:00:48;;;;;;;12.90;6.23;;;11.80;94.90;;;;;;4390933;32;20537;-73
2022/02/26 12:03:26;;;;;;;11.30;5.90;;;11.40;96.80;;;;;;4379039;32;20229;-74
2022/02/26 12:06:23;;;;;;;10.47;5.60;;;11.10;98.30;;;;;;4379556;32;20140;-70
2022/02/26 12:08:58;;;;;;;11.73;5.73;;;10.70;99.90;;;;;;4332932;33;20256;-71
2022/02/26 12:11:31;;;;;;;11.63;5.87;;;10.50;99.90;;;;;;4318633;33;20214;-72
2022/02/26 12:13:59;;;;;;;11.47;6.57;;;10.30;99.90;;;;;;4359142;32;20167;-72
2022/02/26 12:16:35;;;;;;;13.47;6.20;;;10.10;99.90;;;;;;4367098;32;20199;-72
2022/02/26 12:19:20;;;;;;;12.73;6.53;;;10.00;99.90;;;;;;4366851;32;20186;-72
2022/02/26 12:21:50;;;;;;;11.53;6.50;;;9.90;99.90;;;;;;4377807;32;20183;-72
2022/02/26 12:24:19;;;;;;;11.77;6.50;;;9.80;99.90;;;;;;4366182;32;20347;-72
2022/02/26 12:27:02;;;;;;;11.07;6.40;;;9.70;99.90;;;;;;4392801;32;20209;-72
2022/02/26 12:29:31;;;;;;;12.90;6.43;;;10.40;99.90;;;;;;4393057;32;20308;-72
2022/02/26 12:32:17;;;;;;;10.63;6.03;;;12.20;99.90;;;;;;4381877;32;20513;-72
2022/02/26 12:35:23;;;;;;;9.93;5.77;;;13.60;93.10;;;;;;4380508;32;20201;-72
2022/02/26 12:37:50;;;;;;;12.77;5.60;;;14.20;85.90;;;;;;4349969;33;20605;-72
2022/02/26 12:40:22;;;;;;;10.67;6.13;;;13.90;83.80;;;;;;4347896;33;20199;-71
2022/02/26 12:42:50;;;;;;;7.77;4.33;;;13.40;85.00;;;;;;4348576;33;20176;-71
2022/02/26 12:45:18;;;;;;;8.80;4.80;;;12.90;83.10;;;;;;4362779;32;20238;-71
2022/02/26 12:47:46;;;;;;;7.80;4.40;;;13.50;83.30;;;;;;4408262;32;20238;-72
2022/02/26 12:50:17;;;;;;;13.37;4.80;;;14.80;74.50;;;;;;4396644;32;20182;-72
2022/02/26 12:52:44;;;;;;;10.77;4.70;;;16.10;68.90;;;;;;4409639;32;20170;-71